createdAt,value
2019-02-20T00:01:23.566Z,16.57
2019-02-20T00:03:54.043Z,12.67
2019-02-20T00:06:23.154Z,13.40
2019-02-20T00:08:52.554Z,15.47
2019-02-20T00:11:21.557Z,13.80
2019-02-20T00:13:51.585Z,10.63
2019-02-20T00:16:20.981Z,13.90
2019-02-20T00:18:50.675Z,11.80
2019-02-20T00:21:24.479Z,12.77
2019-02-20T00:23:55.331Z,15.30
2019-02-20T00:26:25.072Z,12.33
2019-02-20T00:28:54.787Z,13.17
2019-02-20T00:31:24.520Z,11.47
2019-02-20T00:33:54.356Z,15.07
2019-02-20T00:36:24.297Z,15.00
2019-02-20T00:38:53.855Z,16.00
2019-02-20T00:41:23.554Z,12.20
2019-02-20T00:44:27.143Z,12.93
2019-02-20T00:47:09.173Z,12.47
2019-02-20T00:49:42.120Z,14.00
2019-02-20T00:52:20.790Z,13.53
2019-02-20T00:54:49.950Z,12.37
2019-02-20T00:57:19.681Z,12.40
2019-02-20T00:59:49.665Z,13.77
2019-02-20T01:02:19.082Z,12.53
2019-02-20T01:04:49.084Z,12.30
2019-02-20T01:07:18.571Z,11.90
2019-02-20T01:09:49.089Z,12.33
2019-02-20T01:12:18.630Z,11.07
2019-02-20T01:14:48.048Z,10.73
2019-02-20T01:17:18.862Z,9.13
2019-02-20T01:19:48.293Z,8.90
2019-02-20T01:22:17.387Z,10.97
2019-02-20T01:24:46.999Z,10.47
2019-02-20T01:27:16.219Z,9.07
2019-02-20T01:29:45.882Z,11.20
2019-02-20T01:32:15.566Z,9.67
2019-02-20T01:34:46.237Z,12.13
2019-02-20T01:37:15.742Z,10.63
2019-02-20T01:39:44.842Z,9.67
2019-02-20T01:42:14.654Z,10.63
2019-02-20T01:44:44.429Z,14.53
2019-02-20T01:47:13.997Z,12.37
2019-02-20T01:49:43.930Z,12.10
2019-02-20T01:52:13.642Z,10.77
2019-02-20T01:54:43.154Z,12.43
2019-02-20T01:57:13.341Z,10.63
2019-02-20T01:59:42.780Z,11.07
2019-02-20T02:02:12.485Z,12.67
2019-02-20T02:04:41.802Z,12.13
2019-02-20T02:07:11.158Z,11.63
2019-02-20T02:09:41.066Z,14.03
2019-02-20T02:12:12.701Z,14.30
2019-02-20T02:14:42.388Z,12.50
2019-02-20T02:17:11.816Z,11.20
2019-02-20T02:19:44.218Z,10.90
2019-02-20T02:22:13.944Z,11.13
2019-02-20T02:24:45.877Z,9.67
2019-02-20T02:27:17.992Z,11.63
2019-02-20T02:29:47.812Z,12.80
2019-02-20T02:32:17.995Z,13.97
2019-02-20T02:34:47.481Z,11.00
2019-02-20T02:37:17.225Z,11.77
2019-02-20T02:39:46.383Z,13.53
2019-02-20T02:42:15.851Z,10.63
2019-02-20T02:44:45.618Z,11.10
2019-02-20T02:47:15.978Z,12.23
2019-02-20T02:49:45.508Z,13.10
2019-02-20T02:52:14.846Z,11.23
2019-02-20T02:54:44.533Z,12.17
2019-02-20T02:57:14.620Z,12.87
2019-02-20T02:59:44.515Z,11.80
2019-02-20T03:02:15.232Z,11.20
2019-02-20T03:04:45.919Z,11.93
2019-02-20T03:07:15.667Z,13.57
2019-02-20T03:09:45.796Z,13.60
2019-02-20T03:12:15.690Z,12.97
2019-02-20T03:14:50.053Z,14.47
2019-02-20T03:17:19.185Z,15.87
2019-02-20T03:19:49.173Z,12.73
2019-02-20T03:22:18.390Z,11.90
2019-02-20T03:24:49.843Z,15.93
2019-02-20T03:27:20.063Z,15.07
2019-02-20T03:29:49.611Z,15.70
2019-02-20T03:32:18.967Z,14.67
2019-02-20T03:34:48.544Z,15.97
2019-02-20T03:37:17.900Z,15.00
2019-02-20T03:39:47.123Z,15.43
2019-02-20T03:42:16.964Z,15.00
2019-02-20T03:44:46.452Z,15.47
2019-02-20T03:47:20.382Z,16.07
2019-02-20T03:49:49.711Z,14.80
2019-02-20T03:52:19.855Z,14.63
2019-02-20T03:54:49.694Z,13.90
2019-02-20T03:57:19.558Z,14.17
2019-02-20T03:59:48.952Z,12.40
2019-02-20T04:02:18.849Z,16.07
2019-02-20T04:04:48.150Z,14.07
2019-02-20T04:07:18.498Z,13.60
2019-02-20T04:09:48.355Z,16.33
2019-02-20T04:12:17.556Z,14.53
2019-02-20T04:14:46.881Z,12.77
2019-02-20T04:17:18.554Z,16.47
2019-02-20T04:19:47.643Z,15.03
2019-02-20T04:22:18.297Z,12.20
2019-02-20T04:24:52.970Z,16.90
2019-02-20T04:27:22.118Z,14.07
2019-02-20T04:29:51.256Z,13.47
2019-02-20T04:32:20.331Z,13.87
2019-02-20T04:34:49.744Z,13.43
2019-02-20T04:37:19.387Z,13.70
2019-02-20T04:39:48.936Z,16.67
2019-02-20T04:42:21.515Z,13.90
2019-02-20T04:44:51.232Z,12.57
2019-02-20T04:47:20.803Z,14.20
2019-02-20T04:49:50.350Z,14.70
2019-02-20T04:52:23.257Z,14.40
2019-02-20T04:54:59.153Z,15.03
2019-02-20T04:57:28.337Z,14.00
2019-02-20T04:59:58.131Z,15.73
2019-02-20T05:02:27.316Z,16.10
2019-02-20T05:04:57.443Z,17.40
2019-02-20T05:07:30.470Z,15.20
2019-02-20T05:10:00.340Z,17.10
2019-02-20T05:12:29.853Z,13.70
2019-02-20T05:15:02.658Z,17.57
2019-02-20T05:17:38.728Z,14.40
2019-02-20T05:20:08.240Z,14.93
2019-02-20T05:22:42.746Z,14.93
2019-02-20T05:25:14.696Z,15.70
2019-02-20T05:27:45.835Z,13.37
2019-02-20T05:30:26.266Z,15.07
2019-02-20T05:32:57.044Z,15.17
2019-02-20T05:35:30.431Z,16.90
2019-02-20T05:38:01.329Z,14.87
2019-02-20T05:40:34.797Z,15.13
2019-02-20T05:43:07.179Z,14.07
2019-02-20T05:45:42.326Z,11.37
2019-02-20T05:48:13.262Z,11.93
2019-02-20T05:50:47.118Z,13.00
2019-02-20T05:53:17.277Z,17.13
2019-02-20T05:55:54.542Z,17.70
2019-02-20T05:58:26.817Z,16.13
2019-02-20T06:00:56.534Z,13.50
2019-02-20T06:03:26.653Z,14.57
2019-02-20T06:06:01.807Z,14.07
2019-02-20T06:08:36.810Z,19.10
2019-02-20T06:11:18.183Z,15.77
2019-02-20T06:13:49.210Z,19.63
2019-02-20T06:16:20.382Z,15.33
2019-02-20T06:18:51.697Z,15.60
2019-02-20T06:21:22.508Z,18.00
2019-02-20T06:23:51.791Z,16.57
2019-02-20T06:26:25.289Z,16.77
2019-02-20T06:28:58.979Z,14.63
2019-02-20T06:31:28.146Z,16.40
2019-02-20T06:33:57.562Z,20.67
2019-02-20T06:36:26.778Z,23.63
2019-02-20T06:38:56.698Z,22.27
2019-02-20T06:41:27.295Z,19.60
2019-02-20T06:43:57.033Z,18.40
2019-02-20T06:46:26.656Z,19.97
2019-02-20T06:48:55.768Z,22.87
2019-02-20T06:51:25.703Z,18.40
2019-02-20T06:53:57.544Z,19.77
2019-02-20T06:56:29.106Z,23.40
2019-02-20T06:59:00.951Z,22.67
2019-02-20T07:01:30.789Z,24.40
2019-02-20T07:04:02.271Z,22.90
2019-02-20T07:07:08.008Z,25.80
2019-02-20T07:10:01.531Z,21.57
2019-02-20T07:12:55.809Z,21.07
2019-02-20T07:16:06.390Z,22.93
2019-02-20T07:18:59.328Z,23.20
2019-02-20T07:22:05.524Z,22.63
2019-02-20T07:25:07.762Z,28.40
2019-02-20T07:28:14.136Z,22.67
2019-02-20T07:30:43.367Z,20.43
2019-02-20T07:33:13.460Z,22.73
2019-02-20T07:35:42.673Z,20.63
2019-02-20T07:38:12.133Z,23.53
2019-02-20T07:40:41.810Z,22.53
2019-02-20T07:43:11.933Z,21.63
2019-02-20T07:45:41.689Z,25.83
2019-02-20T07:48:10.989Z,24.47
2019-02-20T07:50:40.505Z,21.23
2019-02-20T07:53:10.734Z,21.43
2019-02-20T07:55:40.287Z,27.67
2019-02-20T07:58:10.119Z,30.47
2019-02-20T08:00:40.079Z,26.33
2019-02-20T08:03:10.551Z,24.40
2019-02-20T08:05:39.774Z,24.43
2019-02-20T08:08:08.967Z,25.53
2019-02-20T08:10:38.759Z,22.40
2019-02-20T08:13:09.479Z,24.00
2019-02-20T08:15:39.414Z,24.10
2019-02-20T08:18:10.819Z,25.70
2019-02-20T08:20:40.565Z,26.27
2019-02-20T08:23:10.414Z,20.93
2019-02-20T08:25:42.535Z,24.17
2019-02-20T08:28:20.726Z,25.20
2019-02-20T08:31:08.479Z,21.17
2019-02-20T08:33:45.260Z,24.37
2019-02-20T08:36:30.241Z,24.37
2019-02-20T08:39:00.696Z,23.10
2019-02-20T08:41:30.418Z,23.37
2019-02-20T08:44:02.955Z,25.73
2019-02-20T08:46:34.090Z,24.63
2019-02-20T08:49:05.088Z,24.90
2019-02-20T08:51:34.953Z,22.37
2019-02-20T08:54:05.373Z,22.10
2019-02-20T08:56:34.598Z,23.77
2019-02-20T08:59:03.861Z,23.07
2019-02-20T09:01:33.814Z,25.77
2019-02-20T09:04:04.623Z,22.03
2019-02-20T09:06:35.450Z,21.30
2019-02-20T09:09:10.616Z,25.37
2019-02-20T09:11:45.596Z,27.67
2019-02-20T09:14:15.346Z,24.50
2019-02-20T09:16:47.151Z,26.93
2019-02-20T09:19:17.130Z,27.00
2019-02-20T09:21:47.545Z,27.27
2019-02-20T09:24:22.193Z,26.57
2019-02-20T09:27:26.698Z,27.30
2019-02-20T09:30:10.695Z,26.43
2019-02-20T09:32:43.823Z,29.90
2019-02-20T09:35:16.977Z,23.97
2019-02-20T09:37:46.625Z,26.67
2019-02-20T09:40:20.498Z,25.53
2019-02-20T09:42:49.776Z,25.43
2019-02-20T09:45:41.643Z,28.93
2019-02-20T09:48:05.223Z,25.47
2019-02-20T09:50:35.012Z,24.30
2019-02-20T09:53:04.850Z,23.37
2019-02-20T09:55:35.407Z,26.87
2019-02-20T09:58:04.652Z,21.50
2019-02-20T10:00:35.537Z,27.37
2019-02-20T10:03:05.122Z,26.20
2019-02-20T10:05:36.259Z,21.77
2019-02-20T10:08:05.565Z,26.13
2019-02-20T10:10:35.847Z,25.17
2019-02-20T10:13:05.351Z,32.70
2019-02-20T10:15:35.256Z,28.40
2019-02-20T10:18:07.585Z,37.60
2019-02-20T10:20:44.670Z,31.03
2019-02-20T10:23:22.564Z,33.80
2019-02-20T10:26:01.214Z,28.37
2019-02-20T10:28:32.245Z,26.37
2019-02-20T10:31:03.894Z,27.67
2019-02-20T10:33:34.981Z,25.17
2019-02-20T10:36:04.783Z,24.37
2019-02-20T10:38:34.545Z,28.00
2019-02-20T10:41:06.624Z,31.23
2019-02-20T10:43:36.204Z,26.27
2019-02-20T10:46:05.862Z,35.07
2019-02-20T10:48:36.861Z,28.37
2019-02-20T10:51:06.731Z,28.33
2019-02-20T10:53:42.572Z,23.93
2019-02-20T10:56:09.807Z,24.70
2019-02-20T10:58:40.259Z,25.43
2019-02-20T11:01:09.923Z,25.17
2019-02-20T11:03:40.315Z,31.70
2019-02-20T11:06:12.647Z,28.00
2019-02-20T11:08:42.874Z,23.70
2019-02-20T11:11:12.915Z,27.00
2019-02-20T11:13:43.879Z,23.67
2019-02-20T11:16:13.477Z,19.53
2019-02-20T11:18:43.332Z,21.77
2019-02-20T11:21:15.499Z,24.03
2019-02-20T11:23:44.985Z,22.30
2019-02-20T11:26:18.268Z,22.40
2019-02-20T11:28:45.191Z,25.00
2019-02-20T11:31:14.937Z,21.73
2019-02-20T11:33:46.976Z,22.93
2019-02-20T11:36:16.709Z,21.47
2019-02-20T11:38:47.852Z,25.90
2019-02-20T11:41:17.849Z,25.53
2019-02-20T11:43:47.475Z,27.27
2019-02-20T11:46:17.373Z,24.27
2019-02-20T11:48:48.316Z,26.37
2019-02-20T11:51:17.786Z,23.80
2019-02-20T11:53:47.873Z,25.40
2019-02-20T11:56:17.353Z,21.63
2019-02-20T11:58:47.197Z,20.43
2019-02-20T12:01:20.161Z,24.50
2019-02-20T12:03:53.620Z,22.60
2019-02-20T12:06:23.588Z,24.40
2019-02-20T12:08:59.941Z,20.67
2019-02-20T12:11:29.467Z,25.00
2019-02-20T12:14:46.075Z,22.17
2019-02-20T12:17:16.140Z,25.27
2019-02-20T12:19:46.990Z,27.67
2019-02-20T12:22:19.414Z,25.93
2019-02-20T12:24:51.219Z,22.67
2019-02-20T12:27:20.546Z,28.60
2019-02-20T12:29:53.911Z,22.33
2019-02-20T12:32:23.431Z,27.67
2019-02-20T12:34:55.514Z,27.70
2019-02-20T12:37:25.129Z,26.97
2019-02-20T12:39:57.323Z,22.40
2019-02-20T12:42:26.906Z,27.90
2019-02-20T12:45:00.318Z,28.27
2019-02-20T12:47:30.571Z,27.37
2019-02-20T12:50:02.620Z,26.30
2019-02-20T12:52:35.792Z,25.40
2019-02-20T12:55:08.269Z,25.37
2019-02-20T12:57:45.868Z,29.50
2019-02-20T13:00:15.929Z,25.30
2019-02-20T13:02:45.502Z,28.43
2019-02-20T13:05:15.363Z,21.90
2019-02-20T13:07:47.024Z,24.07
2019-02-20T13:10:17.038Z,21.43
2019-02-20T13:12:47.693Z,19.70
2019-02-20T13:15:17.331Z,21.57
2019-02-20T13:17:47.108Z,18.90
2019-02-20T13:20:16.597Z,22.73
2019-02-20T13:22:45.808Z,21.73
2019-02-20T13:25:15.011Z,21.13
2019-02-20T13:27:52.226Z,18.97
2019-02-20T13:30:21.421Z,18.77
2019-02-20T13:32:51.320Z,21.70
2019-02-20T13:35:20.868Z,20.70
2019-02-20T13:37:51.964Z,20.83
2019-02-20T13:40:22.022Z,19.77
2019-02-20T13:42:51.378Z,16.90
2019-02-20T13:45:20.785Z,18.53
2019-02-20T13:48:20.865Z,20.40
2019-02-20T13:50:50.455Z,22.87
2019-02-20T13:53:19.678Z,19.73
2019-02-20T13:55:49.400Z,20.90
2019-02-20T13:58:19.111Z,22.27
2019-02-20T14:00:48.562Z,21.80
2019-02-20T14:03:18.166Z,26.03
2019-02-20T14:05:47.949Z,15.30
2019-02-20T14:08:17.484Z,18.10
2019-02-20T14:10:49.001Z,18.87
2019-02-20T14:13:20.740Z,18.83
2019-02-20T14:15:51.929Z,22.77
2019-02-20T14:18:21.031Z,16.90
2019-02-20T14:20:50.294Z,15.93
2019-02-20T14:23:20.675Z,15.07
2019-02-20T14:25:50.538Z,15.13
2019-02-20T14:28:20.795Z,15.70
2019-02-20T14:30:51.123Z,15.70
2019-02-20T14:33:20.503Z,15.67
2019-02-20T14:35:52.761Z,16.67
2019-02-20T14:38:22.273Z,14.83
2019-02-20T14:40:51.773Z,13.40
2019-02-20T14:43:22.903Z,15.93
2019-02-20T14:45:53.612Z,14.33
2019-02-20T14:48:23.787Z,16.53
2019-02-20T14:50:55.700Z,12.60
2019-02-20T14:53:27.438Z,16.77
2019-02-20T14:55:59.628Z,16.53
2019-02-20T14:58:50.155Z,16.40
2019-02-20T15:01:19.384Z,20.90
2019-02-20T15:03:48.837Z,15.73
2019-02-20T15:06:18.897Z,15.60
2019-02-20T15:08:50.060Z,13.17
2019-02-20T15:11:20.178Z,14.13
2019-02-20T15:13:49.817Z,16.23
2019-02-20T15:16:20.039Z,22.17
2019-02-20T15:18:50.638Z,15.13
2019-02-20T15:21:25.103Z,19.67
2019-02-20T15:23:56.568Z,16.53
2019-02-20T15:26:26.380Z,19.97
2019-02-20T15:28:56.586Z,14.23
2019-02-20T15:31:33.392Z,15.93
2019-02-20T15:33:57.451Z,18.17
2019-02-20T15:36:28.338Z,12.63
2019-02-20T15:38:58.645Z,17.73
2019-02-20T15:41:28.446Z,22.03
2019-02-20T15:43:58.542Z,16.67
2019-02-20T15:46:28.214Z,15.03
2019-02-20T15:48:57.447Z,20.67
2019-02-20T15:51:29.186Z,21.20
2019-02-20T15:54:01.814Z,16.87
2019-02-20T15:56:33.445Z,17.83
2019-02-20T15:59:02.823Z,16.10
2019-02-20T16:01:32.835Z,16.73
2019-02-20T16:04:03.103Z,15.80
2019-02-20T16:06:33.579Z,15.43
2019-02-20T16:09:03.592Z,17.87
2019-02-20T16:11:38.595Z,15.73
2019-02-20T16:14:08.475Z,16.37
2019-02-20T16:16:40.750Z,14.77
2019-02-20T16:19:11.482Z,19.80
2019-02-20T16:21:44.241Z,17.57
2019-02-20T16:24:13.684Z,15.93
2019-02-20T16:26:46.633Z,21.27
2019-02-20T16:29:17.424Z,16.97
2019-02-20T16:31:52.625Z,17.60
2019-02-20T16:34:28.449Z,16.27
2019-02-20T16:36:59.395Z,14.97
2019-02-20T16:39:32.387Z,19.47
2019-02-20T16:42:02.968Z,16.07
2019-02-20T16:44:33.258Z,16.30
2019-02-20T16:47:03.393Z,16.67
2019-02-20T16:49:33.948Z,15.23
2019-02-20T16:52:07.896Z,14.57
2019-02-20T16:54:37.964Z,15.87
2019-02-20T16:57:10.476Z,15.63
2019-02-20T16:59:41.384Z,14.40
2019-02-20T17:02:11.449Z,14.77
2019-02-20T17:04:41.607Z,15.63
2019-02-20T17:07:13.299Z,14.77
2019-02-20T17:09:45.551Z,16.10
2019-02-20T17:12:15.552Z,19.20
2019-02-20T17:14:45.414Z,15.03
2019-02-20T17:17:15.494Z,15.13
2019-02-20T17:19:45.538Z,13.57
2019-02-20T17:22:15.135Z,16.27
2019-02-20T17:24:46.825Z,14.67
2019-02-20T17:27:16.995Z,16.90
2019-02-20T17:29:46.599Z,16.47
2019-02-20T17:32:19.160Z,17.50
2019-02-20T17:34:49.214Z,16.47
2019-02-20T17:37:22.853Z,16.57
2019-02-20T17:39:56.541Z,14.90
2019-02-20T17:42:25.948Z,16.07
2019-02-20T17:44:55.904Z,15.37
2019-02-20T17:47:25.494Z,18.57
2019-02-20T17:49:55.178Z,18.70
2019-02-20T17:52:28.434Z,15.50
2019-02-20T17:55:00.376Z,20.57
2019-02-20T17:57:33.134Z,18.70
2019-02-20T18:00:07.068Z,18.53
2019-02-20T18:02:37.465Z,17.47
2019-02-20T18:05:11.055Z,17.63
2019-02-20T18:07:48.812Z,18.40
2019-02-20T18:10:14.037Z,18.60
2019-02-20T18:12:43.614Z,17.80
2019-02-20T18:15:13.271Z,19.53
2019-02-20T18:17:43.767Z,20.30
2019-02-20T18:20:14.199Z,19.50
2019-02-20T18:22:47.636Z,21.13
2019-02-20T18:25:17.892Z,19.13
2019-02-20T18:27:47.260Z,18.80
2019-02-20T18:30:17.423Z,23.40
2019-02-20T18:32:49.730Z,20.13
2019-02-20T18:35:23.764Z,16.93
2019-02-20T18:37:54.334Z,19.00
2019-02-20T18:40:24.654Z,18.47
2019-02-20T18:42:57.446Z,18.00
2019-02-20T18:45:27.193Z,19.80
2019-02-20T18:47:57.227Z,18.53
2019-02-20T18:50:31.505Z,21.67
2019-02-20T18:53:01.354Z,20.27
2019-02-20T18:55:31.368Z,19.83
2019-02-20T18:58:06.288Z,23.07
2019-02-20T19:00:35.942Z,23.00
2019-02-20T19:03:06.679Z,21.33
2019-02-20T19:05:37.192Z,20.47
2019-02-20T19:09:03.118Z,21.83
2019-02-20T19:11:47.140Z,20.33
2019-02-20T19:14:46.459Z,21.53
2019-02-20T19:17:58.091Z,22.47
2019-02-20T19:20:58.986Z,18.43
2019-02-20T19:24:14.131Z,28.00
2019-02-20T19:27:15.940Z,23.13
2019-02-20T19:30:27.620Z,21.43
2019-02-20T19:33:14.419Z,27.33
2019-02-20T19:36:16.544Z,33.43
2019-02-20T19:39:13.244Z,25.03
2019-02-20T19:42:26.872Z,22.90
2019-02-20T19:45:33.124Z,25.40
2019-02-20T19:48:39.034Z,27.63
2019-02-20T19:51:41.037Z,29.03
2019-02-20T19:54:24.573Z,25.97
2019-02-20T19:57:20.698Z,30.97
2019-02-20T20:00:24.942Z,28.47
2019-02-20T20:03:32.999Z,27.17
2019-02-20T20:06:20.538Z,29.83
2019-02-20T20:09:12.308Z,28.07
2019-02-20T20:12:28.939Z,35.30
2019-02-20T20:15:30.201Z,28.80
2019-02-20T20:18:37.579Z,29.80
2019-02-20T20:21:31.208Z,33.53
2019-02-20T20:24:30.028Z,26.63
2019-02-20T20:27:42.998Z,28.53
2019-02-20T20:30:42.777Z,31.60
2019-02-20T20:33:57.081Z,28.23
2019-02-20T20:37:21.087Z,26.40
2019-02-20T20:40:35.096Z,23.67
2019-02-20T20:43:26.002Z,21.77
2019-02-20T20:46:32.869Z,22.87
2019-02-20T20:49:49.337Z,21.33
2019-02-20T20:53:09.304Z,23.37
2019-02-20T20:56:14.360Z,23.37
2019-02-20T20:59:17.232Z,19.37
2019-02-20T21:02:21.277Z,19.23
2019-02-20T21:05:47.453Z,20.87
2019-02-20T21:08:31.247Z,23.03
2019-02-20T21:11:44.886Z,20.97
2019-02-20T21:15:02.428Z,23.43
2019-02-20T21:18:27.498Z,21.90
2019-02-20T21:21:14.255Z,24.30
2019-02-20T21:24:24.914Z,18.63
2019-02-20T21:27:44.070Z,18.70
2019-02-20T21:30:43.229Z,22.80
2019-02-20T21:33:48.230Z,21.57
2019-02-20T21:36:24.305Z,19.53
2019-02-20T21:39:17.058Z,21.53
2019-02-20T21:42:17.032Z,20.70
2019-02-20T21:45:09.089Z,21.50
2019-02-20T21:48:32.366Z,18.67
2019-02-20T21:51:14.090Z,21.93
2019-02-20T21:54:34.920Z,17.70
2019-02-20T21:57:34.732Z,23.70
2019-02-20T22:00:57.929Z,22.00
2019-02-20T22:04:10.435Z,26.60
2019-02-20T22:07:27.019Z,22.10
2019-02-20T22:10:41.318Z,22.80
2019-02-20T22:13:46.758Z,20.67
2019-02-20T22:16:49.446Z,19.73
2019-02-20T22:20:05.404Z,18.37
2019-02-20T22:23:01.843Z,20.90
2019-02-20T22:26:03.501Z,23.00
2019-02-20T22:28:57.631Z,26.43
2019-02-20T22:31:50.274Z,23.67
2019-02-20T22:34:49.243Z,21.43
2019-02-20T22:37:51.373Z,20.30
2019-02-20T22:41:02.410Z,21.93
2019-02-20T22:43:58.178Z,19.70
2019-02-20T22:46:54.286Z,21.07
2019-02-20T22:50:04.633Z,20.83
2019-02-20T22:53:08.025Z,21.80
2019-02-20T22:56:16.480Z,22.83
2019-02-20T22:59:09.175Z,21.70
2019-02-20T23:02:26.706Z,22.23
2019-02-20T23:05:35.148Z,22.53
2019-02-20T23:08:25.940Z,22.40
2019-02-20T23:11:54.033Z,22.63
2019-02-20T23:14:55.860Z,25.33
2019-02-20T23:17:27.380Z,21.30
2019-02-20T23:19:57.341Z,22.63
2019-02-20T23:22:29.673Z,20.10
2019-02-20T23:25:00.295Z,21.07
2019-02-20T23:27:32.635Z,23.27
2019-02-20T23:30:12.856Z,23.70
2019-02-20T23:32:37.557Z,22.53
2019-02-20T23:35:07.813Z,21.80
2019-02-20T23:37:37.421Z,23.67
2019-02-20T23:40:08.140Z,24.40
2019-02-20T23:42:37.965Z,22.47
2019-02-20T23:45:07.171Z,23.53
2019-02-20T23:47:36.910Z,20.60
2019-02-20T23:50:06.386Z,24.53
2019-02-20T23:52:35.791Z,21.30
2019-02-20T23:55:05.620Z,18.93
2019-02-20T23:57:34.893Z,19.37
